createdAt,value
2023-03-11T00:00:18.062Z,-0.66
2023-03-11T00:03:46.287Z,-0.65
2023-03-11T00:06:54.584Z,-0.64
2023-03-11T00:09:47.999Z,-0.64
2023-03-11T00:12:29.589Z,-0.63
2023-03-11T00:15:39.599Z,-0.64
2023-03-11T00:18:36.722Z,-0.67
2023-03-11T00:21:44.940Z,-0.70
2023-03-11T00:24:15.618Z,-0.74
2023-03-11T00:27:13.914Z,-0.76
2023-03-11T00:30:04.215Z,-0.76
2023-03-11T00:33:12.584Z,-0.76
2023-03-11T00:36:10.894Z,-0.77
2023-03-11T00:39:09.391Z,-0.81
2023-03-11T00:42:17.563Z,-0.83
2023-03-11T00:44:57.027Z,-0.85
2023-03-11T00:47:25.095Z,-0.85
2023-03-11T00:49:52.953Z,-0.88
2023-03-11T00:52:29.992Z,-0.90
2023-03-11T00:54:59.002Z,-0.91
2023-03-11T00:57:29.151Z,-0.91
2023-03-11T00:59:56.891Z,-0.93
2023-03-11T01:02:58.055Z,-0.96
2023-03-11T01:06:06.432Z,-1.03
2023-03-11T01:09:14.650Z,-1.09
2023-03-11T01:12:23.049Z,-1.13
2023-03-11T01:15:17.128Z,-1.22
2023-03-11T01:18:08.483Z,-1.25
2023-03-11T01:21:16.764Z,-1.29
2023-03-11T01:24:18.010Z,-1.33
2023-03-11T01:27:19.304Z,-1.37
2023-03-11T01:30:16.102Z,-1.39
2023-03-11T01:33:24.373Z,-1.39
2023-03-11T01:36:32.644Z,-1.41
2023-03-11T01:39:40.846Z,-1.44
2023-03-11T01:42:49.043Z,-1.46
2023-03-11T01:45:57.498Z,-1.49
2023-03-11T01:49:05.821Z,-1.52
2023-03-11T01:52:14.102Z,-1.54
2023-03-11T01:55:22.309Z,-1.60
2023-03-11T01:58:22.160Z,-1.64
2023-03-11T02:01:10.227Z,-1.70
2023-03-11T02:03:39.594Z,-1.73
2023-03-11T02:06:13.808Z,-1.75
2023-03-11T02:08:42.569Z,-1.76
2023-03-11T02:11:34.012Z,-1.79
2023-03-11T02:14:04.898Z,-1.80
2023-03-11T02:17:13.069Z,-1.81
2023-03-11T02:20:21.524Z,-1.83
2023-03-11T02:23:29.685Z,-1.87
2023-03-11T02:26:20.010Z,-1.91
2023-03-11T02:29:28.279Z,-1.95
2023-03-11T02:32:30.680Z,-2.03
2023-03-11T02:35:31.532Z,-2.09
2023-03-11T02:38:39.940Z,-2.13
2023-03-11T02:41:48.254Z,-2.17
2023-03-11T02:44:56.564Z,-2.21
2023-03-11T02:47:55.108Z,-2.23
2023-03-11T02:50:44.976Z,-2.27
2023-03-11T02:53:53.109Z,-2.28
2023-03-11T02:56:52.612Z,-2.31
2023-03-11T02:59:40.270Z,-2.34
2023-03-11T03:02:41.269Z,-2.36
2023-03-11T03:05:49.524Z,-2.38
2023-03-11T03:08:50.334Z,-2.41
2023-03-11T03:11:58.682Z,-2.43
2023-03-11T03:14:59.986Z,-2.43
2023-03-11T03:18:08.232Z,-2.46
2023-03-11T03:21:06.682Z,-2.48
2023-03-11T03:23:55.298Z,-2.50
2023-03-11T03:27:03.905Z,-2.53
2023-03-11T03:30:04.988Z,-2.57
2023-03-11T03:33:13.215Z,-2.59
2023-03-11T03:36:21.574Z,-2.61
2023-03-11T03:39:30.748Z,-2.61
2023-03-11T03:42:39.233Z,-2.60
2023-03-11T03:45:19.393Z,-2.60
2023-03-11T03:48:13.127Z,-2.60
2023-03-11T03:51:21.420Z,-2.63
2023-03-11T03:54:28.498Z,-2.64
2023-03-11T03:57:36.633Z,-2.64
2023-03-11T04:00:34.796Z,-2.60
2023-03-11T04:03:43.119Z,-2.56
2023-03-11T04:06:57.294Z,-2.50
2023-03-11T04:09:58.687Z,-2.46
2023-03-11T04:13:05.971Z,-2.43
2023-03-11T04:16:14.286Z,-2.39
2023-03-11T04:18:49.396Z,-2.35
2023-03-11T04:21:37.369Z,-2.34
2023-03-11T04:24:14.582Z,-2.28
2023-03-11T04:27:22.708Z,-2.24
2023-03-11T04:30:31.155Z,-2.19
2023-03-11T04:33:31.856Z,-2.15
2023-03-11T04:36:40.016Z,-2.12
2023-03-11T04:39:48.223Z,-2.08
2023-03-11T04:42:56.628Z,-2.04
2023-03-11T04:45:47.591Z,-1.99
2023-03-11T04:48:55.853Z,-1.97
2023-03-11T04:52:04.352Z,-1.96
2023-03-11T04:55:12.915Z,-1.91
2023-03-11T04:58:21.290Z,-1.87
2023-03-11T05:01:28.067Z,-1.84
2023-03-11T05:04:36.528Z,-1.82
2023-03-11T05:07:42.382Z,-1.81
2023-03-11T05:10:34.000Z,-1.83
2023-03-11T05:13:32.380Z,-1.83
2023-03-11T05:16:09.384Z,-1.80
2023-03-11T05:19:17.733Z,-1.78
2023-03-11T05:22:25.957Z,-1.77
2023-03-11T05:25:34.361Z,-1.78
2023-03-11T05:28:31.189Z,-1.79
2023-03-11T05:31:29.916Z,-1.83
2023-03-11T05:34:09.760Z,-1.83
2023-03-11T05:37:18.138Z,-1.82
2023-03-11T05:40:21.529Z,-1.80
2023-03-11T05:43:28.837Z,-1.76
2023-03-11T05:46:37.470Z,-1.72
2023-03-11T05:49:45.794Z,-1.68
2023-03-11T05:52:41.874Z,-1.67
2023-03-11T05:55:50.137Z,-1.71
2023-03-11T05:58:58.311Z,-1.72
2023-03-11T06:02:06.834Z,-1.68
2023-03-11T06:05:15.529Z,-1.67
2023-03-11T06:08:24.007Z,-1.71
2023-03-11T06:11:32.207Z,-1.73
2023-03-11T06:14:32.909Z,-1.75
2023-03-11T06:17:41.302Z,-1.70
2023-03-11T06:20:49.913Z,-1.64
2023-03-11T06:23:58.386Z,-1.62
2023-03-11T06:27:06.948Z,-1.61
2023-03-11T06:30:15.414Z,-1.61
2023-03-11T06:33:26.403Z,-1.65
2023-03-11T06:36:37.510Z,-1.70
2023-03-11T06:39:38.540Z,-1.73
2023-03-11T06:42:47.123Z,-1.77
2023-03-11T06:45:55.403Z,-1.72
2023-03-11T06:49:04.044Z,-1.67
2023-03-11T06:52:12.222Z,-1.65
2023-03-11T06:55:20.520Z,-1.64
2023-03-11T06:58:08.710Z,-1.62
2023-03-11T07:01:17.475Z,-1.59
2023-03-11T07:04:22.062Z,-1.59
2023-03-11T07:07:30.312Z,-1.55
2023-03-11T07:10:37.435Z,-1.52
2023-03-11T07:13:35.265Z,-1.43
2023-03-11T07:16:43.595Z,-1.33
2023-03-11T07:19:51.988Z,-1.24
2023-03-11T07:22:51.177Z,-1.16
2023-03-11T07:25:58.494Z,-1.08
2023-03-11T07:28:57.734Z,-1.00
2023-03-11T07:32:06.178Z,-0.90
2023-03-11T07:35:14.338Z,-0.81
2023-03-11T07:38:05.504Z,-0.67
2023-03-11T07:41:14.209Z,-0.52
2023-03-11T07:44:22.957Z,-0.39
2023-03-11T07:47:31.203Z,-0.32
2023-03-11T07:50:22.242Z,-0.25
2023-03-11T07:53:30.404Z,-0.18
2023-03-11T07:56:33.034Z,-0.09
2023-03-11T07:59:31.331Z,0.07
2023-03-11T08:02:38.482Z,0.18
2023-03-11T08:05:46.885Z,0.27
2023-03-11T08:08:55.123Z,0.44
2023-03-11T08:12:03.336Z,0.59
2023-03-11T08:15:13.012Z,0.66
2023-03-11T08:18:21.170Z,0.71
2023-03-11T08:21:29.421Z,0.78
2023-03-11T08:24:37.545Z,0.84
2023-03-11T08:27:45.921Z,0.92
2023-03-11T08:30:37.376Z,0.99
2023-03-11T08:33:45.709Z,1.13
2023-03-11T08:36:45.138Z,1.30
2023-03-11T08:39:53.704Z,1.45
2023-03-11T08:43:01.900Z,1.63
2023-03-11T08:46:11.430Z,1.86
2023-03-11T08:49:13.683Z,2.06
2023-03-11T08:52:22.134Z,2.15
2023-03-11T08:55:30.276Z,2.21
2023-03-11T08:58:31.531Z,2.28
2023-03-11T09:01:28.698Z,2.39
2023-03-11T09:04:19.770Z,2.43
2023-03-11T09:07:20.738Z,2.46
2023-03-11T09:10:19.238Z,2.50
2023-03-11T09:12:55.995Z,2.55
2023-03-11T09:15:55.579Z,2.57
2023-03-11T09:19:03.859Z,2.65
2023-03-11T09:22:12.226Z,2.84
2023-03-11T09:25:00.500Z,3.12
2023-03-11T09:27:51.667Z,3.35
2023-03-11T09:30:39.877Z,3.59
2023-03-11T09:33:47.527Z,3.79
2023-03-11T09:36:56.019Z,3.98
2023-03-11T09:39:57.450Z,4.11
2023-03-11T09:43:14.526Z,4.22
2023-03-11T09:46:10.954Z,4.28
2023-03-11T09:49:20.382Z,4.38
2023-03-11T09:52:27.752Z,4.48
2023-03-11T09:55:36.206Z,4.56
2023-03-11T09:58:47.306Z,4.65
2023-03-11T10:01:55.519Z,4.75
2023-03-11T10:05:12.927Z,4.81
2023-03-11T10:07:47.607Z,4.82
2023-03-11T10:10:25.540Z,4.83
2023-03-11T10:13:27.871Z,4.84
2023-03-11T10:16:28.263Z,4.86
2023-03-11T10:19:05.736Z,4.88
2023-03-11T10:22:05.094Z,4.88
2023-03-11T10:25:11.791Z,4.92
2023-03-11T10:27:49.459Z,4.98
2023-03-11T10:30:27.814Z,5.05
2023-03-11T10:33:00.163Z,5.10
2023-03-11T10:35:36.988Z,5.16
2023-03-11T10:38:33.266Z,5.21
2023-03-11T10:41:41.443Z,5.24
2023-03-11T10:45:06.109Z,5.27
2023-03-11T10:48:16.345Z,5.31
2023-03-11T10:51:28.478Z,5.32
2023-03-11T10:54:38.713Z,5.35
2023-03-11T10:57:47.987Z,5.35
2023-03-11T11:00:58.268Z,5.48
2023-03-11T11:04:06.575Z,5.62
2023-03-11T11:07:12.874Z,5.76
2023-03-11T11:10:16.042Z,5.93
2023-03-11T11:13:36.539Z,6.08
2023-03-11T11:16:44.860Z,6.26
2023-03-11T11:19:46.036Z,6.36
2023-03-11T11:22:54.288Z,6.44
2023-03-11T11:26:08.331Z,6.45
2023-03-11T11:29:16.618Z,6.50
2023-03-11T11:32:25.984Z,6.57
2023-03-11T11:35:34.692Z,6.69
2023-03-11T11:38:34.525Z,6.89
2023-03-11T11:41:44.790Z,7.15
2023-03-11T11:44:20.909Z,7.36
2023-03-11T11:47:42.295Z,7.44
2023-03-11T11:50:50.614Z,7.48
2023-03-11T11:54:02.336Z,7.48
2023-03-11T11:57:09.313Z,7.56
2023-03-11T12:00:17.768Z,7.67
2023-03-11T12:03:26.133Z,7.78
2023-03-11T12:06:40.548Z,7.79
2023-03-11T12:09:53.707Z,7.84
2023-03-11T12:12:46.665Z,7.90
2023-03-11T12:16:01.131Z,8.01
2023-03-11T12:19:18.754Z,8.13
2023-03-11T12:22:22.054Z,8.20
2023-03-11T12:24:53.009Z,8.21
2023-03-11T12:27:57.607Z,8.26
2023-03-11T12:31:08.929Z,8.32
2023-03-11T12:34:23.429Z,8.36
2023-03-11T12:37:35.114Z,8.53
2023-03-11T12:40:43.292Z,8.72
2023-03-11T12:44:03.815Z,8.90
2023-03-11T12:47:10.932Z,9.05
2023-03-11T12:50:00.527Z,9.08
2023-03-11T12:53:08.800Z,9.12
2023-03-11T12:56:17.289Z,9.13
2023-03-11T12:59:28.521Z,9.20
2023-03-11T13:02:46.117Z,9.30
2023-03-11T13:06:12.461Z,9.41
2023-03-11T13:09:26.732Z,9.48
2023-03-11T13:12:34.944Z,9.53
2023-03-11T13:15:43.152Z,9.57
2023-03-11T13:18:54.256Z,9.55
2023-03-11T13:22:08.177Z,9.55
2023-03-11T13:25:16.601Z,9.46
2023-03-11T13:28:24.870Z,9.46
2023-03-11T13:31:34.645Z,9.53
2023-03-11T13:34:45.767Z,9.60
2023-03-11T13:37:54.161Z,9.67
2023-03-11T13:41:05.117Z,9.81
2023-03-11T13:44:13.338Z,9.94
2023-03-11T13:47:22.900Z,10.11
2023-03-11T13:50:30.983Z,10.21
2023-03-11T13:53:39.574Z,10.16
2023-03-11T13:56:47.968Z,10.17
2023-03-11T13:59:56.410Z,10.15
2023-03-11T14:02:59.363Z,10.04
2023-03-11T14:06:07.667Z,9.87
2023-03-11T14:09:02.791Z,9.86
2023-03-11T14:11:51.075Z,9.93
2023-03-11T14:14:40.417Z,9.92
2023-03-11T14:17:28.676Z,9.84
2023-03-11T14:20:07.164Z,9.75
2023-03-11T14:22:38.457Z,9.63
2023-03-11T14:25:39.905Z,9.58
2023-03-11T14:28:48.321Z,9.56
2023-03-11T14:32:02.516Z,9.53
2023-03-11T14:35:10.836Z,9.51
2023-03-11T14:38:19.206Z,9.42
2023-03-11T14:41:27.658Z,9.38
2023-03-11T14:44:20.104Z,9.32
2023-03-11T14:46:56.943Z,9.22
2023-03-11T14:50:04.322Z,9.06
2023-03-11T14:53:12.663Z,8.90
2023-03-11T14:56:27.135Z,8.79
2023-03-11T14:59:15.346Z,8.75
2023-03-11T15:01:49.985Z,8.75
2023-03-11T15:05:00.639Z,8.73
2023-03-11T15:07:52.064Z,8.69
2023-03-11T15:10:46.486Z,8.69
2023-03-11T15:13:55.073Z,8.72
2023-03-11T15:17:03.306Z,8.69
2023-03-11T15:19:52.901Z,8.72
2023-03-11T15:23:10.261Z,8.75
2023-03-11T15:26:09.021Z,8.75
2023-03-11T15:29:17.320Z,8.78
2023-03-11T15:32:18.300Z,8.84
2023-03-11T15:35:15.728Z,8.90
2023-03-11T15:38:06.332Z,8.95
2023-03-11T15:41:05.222Z,8.94
2023-03-11T15:44:03.051Z,8.88
2023-03-11T15:47:11.461Z,8.79
2023-03-11T15:50:04.464Z,8.68
2023-03-11T15:53:06.189Z,8.55
2023-03-11T15:56:15.520Z,8.41
2023-03-11T15:59:24.965Z,8.35
2023-03-11T16:02:23.449Z,8.31
2023-03-11T16:05:30.359Z,8.23
2023-03-11T16:08:32.037Z,8.13
2023-03-11T16:11:41.714Z,8.08
2023-03-11T16:14:50.688Z,8.01
2023-03-11T16:17:39.551Z,7.94
2023-03-11T16:20:41.493Z,7.93
2023-03-11T16:23:58.627Z,7.94
2023-03-11T16:27:07.053Z,7.95
2023-03-11T16:30:06.431Z,7.91
2023-03-11T16:33:14.811Z,7.87
2023-03-11T16:36:07.417Z,7.83
2023-03-11T16:39:17.907Z,7.75
2023-03-11T16:42:17.315Z,7.63
2023-03-11T16:45:25.303Z,7.50
2023-03-11T16:48:16.622Z,7.35
2023-03-11T16:51:24.897Z,7.22
2023-03-11T16:54:15.899Z,7.10
2023-03-11T16:57:24.183Z,7.04
2023-03-11T17:00:32.440Z,6.95
2023-03-11T17:03:42.691Z,6.86
2023-03-11T17:06:45.523Z,6.75
2023-03-11T17:09:16.078Z,6.65
2023-03-11T17:11:49.934Z,6.59
2023-03-11T17:14:17.904Z,6.52
2023-03-11T17:17:07.419Z,6.45
2023-03-11T17:19:35.511Z,6.37
2023-03-11T17:22:03.688Z,6.28
2023-03-11T17:24:31.820Z,6.16
2023-03-11T17:27:35.396Z,6.07
2023-03-11T17:30:43.752Z,5.97
2023-03-11T17:33:51.647Z,5.88
2023-03-11T17:36:22.737Z,5.81
2023-03-11T17:39:30.986Z,5.77
2023-03-11T17:42:27.727Z,5.75
2023-03-11T17:45:36.018Z,5.71
2023-03-11T17:48:17.627Z,5.63
2023-03-11T17:50:48.827Z,5.58
2023-03-11T17:53:36.177Z,5.53
2023-03-11T17:56:44.692Z,5.47
2023-03-11T17:59:53.360Z,5.38
2023-03-11T18:03:01.666Z,5.32
2023-03-11T18:06:09.118Z,5.27
2023-03-11T18:09:17.387Z,5.20
2023-03-11T18:12:14.415Z,5.15
2023-03-11T18:15:18.822Z,5.08
2023-03-11T18:18:10.630Z,5.03
2023-03-11T18:21:18.972Z,5.01
2023-03-11T18:24:17.532Z,4.96
2023-03-11T18:26:51.113Z,4.94
2023-03-11T18:29:24.569Z,4.92
2023-03-11T18:31:52.752Z,4.89
2023-03-11T18:34:26.235Z,4.87
2023-03-11T18:36:54.151Z,4.86
2023-03-11T18:40:02.446Z,4.85
2023-03-11T18:43:10.728Z,4.81
2023-03-11T18:46:19.029Z,4.79
2023-03-11T18:49:27.439Z,4.76
2023-03-11T18:52:35.731Z,4.72
2023-03-11T18:55:44.186Z,4.69
2023-03-11T18:58:52.403Z,4.67
2023-03-11T19:02:00.899Z,4.65
2023-03-11T19:05:09.199Z,4.60
2023-03-11T19:08:17.766Z,4.57
2023-03-11T19:10:48.534Z,4.53
2023-03-11T19:13:46.902Z,4.50
2023-03-11T19:16:55.847Z,4.46
2023-03-11T19:19:44.142Z,4.42
2023-03-11T19:22:20.330Z,4.40
2023-03-11T19:25:27.783Z,4.37
2023-03-11T19:28:36.522Z,4.33
2023-03-11T19:31:45.272Z,4.30
2023-03-11T19:34:53.527Z,4.27
2023-03-11T19:38:01.936Z,4.25
2023-03-11T19:41:11.727Z,4.23
2023-03-11T19:44:09.328Z,4.21
2023-03-11T19:47:17.830Z,4.20
2023-03-11T19:50:26.465Z,4.19
2023-03-11T19:53:23.808Z,4.16
2023-03-11T19:56:32.201Z,4.13
2023-03-11T19:59:40.472Z,4.07
2023-03-11T20:02:51.691Z,4.03
2023-03-11T20:05:52.741Z,4.00
2023-03-11T20:09:01.447Z,3.97
2023-03-11T20:12:09.741Z,3.96
2023-03-11T20:15:18.159Z,3.94
2023-03-11T20:17:51.787Z,3.91
2023-03-11T20:21:00.543Z,3.89
2023-03-11T20:24:08.811Z,3.88
2023-03-11T20:27:17.410Z,3.85
2023-03-11T20:30:25.686Z,3.80
2023-03-11T20:33:34.328Z,3.75
2023-03-11T20:36:21.038Z,3.70
2023-03-11T20:39:29.698Z,3.67
2023-03-11T20:42:38.456Z,3.63
2023-03-11T20:45:47.380Z,3.58
2023-03-11T20:48:55.721Z,3.53
2023-03-11T20:51:51.454Z,3.50
2023-03-11T20:54:59.719Z,3.44
2023-03-11T20:57:58.207Z,3.41
2023-03-11T21:01:02.652Z,3.38
2023-03-11T21:04:11.417Z,3.33
2023-03-11T21:07:19.806Z,3.31
2023-03-11T21:10:28.109Z,3.30
2023-03-11T21:13:35.688Z,3.28
2023-03-11T21:16:44.838Z,3.29
2023-03-11T21:19:53.558Z,3.30
2023-03-11T21:22:47.594Z,3.31
2023-03-11T21:25:55.944Z,3.32
2023-03-11T21:29:04.329Z,3.32
2023-03-11T21:32:05.969Z,3.34
2023-03-11T21:35:14.973Z,3.34
2023-03-11T21:38:23.582Z,3.33
2023-03-11T21:42:00.001Z,3.33
2023-03-11T21:45:08.663Z,3.34
2023-03-11T21:48:10.199Z,3.36
2023-03-11T21:51:11.675Z,3.38
2023-03-11T21:54:20.141Z,3.41
2023-03-11T21:57:28.510Z,3.41
2023-03-11T22:00:37.436Z,3.42
2023-03-11T22:03:46.279Z,3.43
2023-03-11T22:06:57.007Z,3.44
2023-03-11T22:09:56.056Z,3.45
2023-03-11T22:13:04.666Z,3.46
2023-03-11T22:16:13.116Z,3.49
2023-03-11T22:19:21.959Z,3.51
2023-03-11T22:22:11.730Z,3.53
2023-03-11T22:25:20.145Z,3.56
2023-03-11T22:28:28.608Z,3.58
2023-03-11T22:31:37.400Z,3.60
2023-03-11T22:34:45.834Z,3.62
2023-03-11T22:37:54.263Z,3.64
2023-03-11T22:41:02.629Z,3.66
2023-03-11T22:44:11.042Z,3.69
2023-03-11T22:47:19.463Z,3.72
2023-03-11T22:50:28.165Z,3.73
2023-03-11T22:53:36.711Z,3.75
2023-03-11T22:56:48.668Z,3.78
2023-03-11T22:59:58.575Z,3.82
2023-03-11T23:03:07.093Z,3.85
2023-03-11T23:06:15.518Z,3.89
2023-03-11T23:08:55.114Z,3.91
2023-03-11T23:11:32.063Z,3.93
2023-03-11T23:14:05.855Z,3.96
2023-03-11T23:16:34.111Z,3.98
2023-03-11T23:19:04.797Z,4.00
2023-03-11T23:21:33.279Z,4.02
2023-03-11T23:24:10.471Z,4.04
2023-03-11T23:26:58.915Z,4.04
2023-03-11T23:29:50.170Z,4.06
2023-03-11T23:32:58.539Z,4.08
2023-03-11T23:35:46.975Z,4.11
2023-03-11T23:38:55.456Z,4.14
2023-03-11T23:41:46.540Z,4.18
2023-03-11T23:44:28.958Z,4.21
2023-03-11T23:47:30.133Z,4.25
2023-03-11T23:50:38.879Z,4.27
2023-03-11T23:53:17.297Z,4.31
2023-03-11T23:55:50.611Z,4.33
2023-03-11T23:58:59.208Z,4.35
